Ana Sayfa
METAR-TAF:

METAR-TAF

Havaalanları :

Güvercinlik Havalimanı

Ankara Güvercinlik, Türkiye

Enlem: 39-56N, Boylam: 032-45E, yükseklik: 819 m

Güncel hava durumu gözlemi

Rapor saat 14:33 UTC de 8 saat ve 8 dakika önce yapıldı.
Rüzgar güneybatıdan 7 kt, güney ve batı/güneybatı arasında değişken
Sıcaklık 17°C
Nem 72%
Basınç 1020 hPa
Görüş mesafesi 10 km veya daha fazla
3000 ft yükseklikte az bulutlu, Kümülonimbus.
4000 ft yükseklikte parçalı bulutlu

METAR: LTAB 171433Z 23007KT 180V240 9999 FEW030CB SCT040 17/12 Q1020 RETSRA TEMPO -TSRA RMK RWY06 21003KT 180V290

Saat: 01:41 (22:41 UTC)

Tahmin

Rapor saat 19:40 UTC de 3 saat ve 1 dakika önce yapıldı.
Ayın 17'si saat 21 UTC'den ayın 18'si saat 06 UTC'ye kadar geçerli Tahmin
Rüzgar değişken yönden 2 kt
Görüş mesafesi 10 km veya daha fazla
1500 m altında bulut yok ve kümülonimbus yok

TAF: LTAB 171940Z 1721/1806 VRB02KT CAVOK

4.000'den fazla havaalanı için hava durumu gözlemleri ve tahminleri (METAR ve TAF raporları).

Kullanılabilir istasyonlar harita üzerinde sarı ve kırmızı noktalarla gösterilir.

İstasyonun adını görmek için fareyi noktanın üzerinde gezdirin.

Sonrasında hava gözlem ve tahminlerini görmek için tıklayın.

Haritayı değiştirmek için: yaklaştırmak için siyah artı işaretli yeşil düğmeye ve uzaklaştırmak için de eksi işaretli düğmeye hızla tıklayın; bitişik haritalar için yeşil okları kullanın.


METAR-TAF: